Time;durP1;ratioP1;P1;durP2;ratioP2;P2;SDS_P1;SDS_P2;PMS_P1;PMS_P2;Temp;Humidity;BMP_temperature;BMP_pressure;BME280_temperature;BME280_humidity;BME280_pressure;Samples;Min_cycle;Max_cycle;Signal;HPM_P1;HPM_P2
2024/04/03 00:01:27;;;;;;;7.37;6.87;;;6.50;99.90;;;;;;5014540;28;20283;-74
2024/04/03 00:03:53;;;;;;;7.30;6.80;;;6.40;99.90;;;;;;5013920;28;20302;-75
2024/04/03 00:06:20;;;;;;;7.53;7.00;;;6.30;99.90;;;;;;5006377;28;20537;-75
2024/04/03 00:08:45;;;;;;;7.40;6.90;;;6.40;99.90;;;;;;5031533;28;20660;-75
2024/04/03 00:11:12;;;;;;;7.57;6.90;;;6.40;99.90;;;;;;5032138;28;20204;-75
2024/04/03 00:13:39;;;;;;;7.87;7.10;;;6.50;99.90;;;;;;5031659;28;20294;-75
2024/04/03 00:16:06;;;;;;;7.77;7.27;;;6.50;99.90;;;;;;5013559;28;20242;-75
2024/04/03 00:18:32;;;;;;;7.60;7.10;;;6.60;99.90;;;;;;5031760;28;20306;-75
2024/04/03 00:21:02;;;;;;;7.70;7.20;;;6.60;99.90;;;;;;5013835;28;20715;-75
2024/04/03 00:23:28;;;;;;;7.87;7.17;;;6.70;99.90;;;;;;5013847;28;20565;-74
2024/04/03 00:25:56;;;;;;;7.23;6.73;;;6.70;99.90;;;;;;5031338;28;20226;-74
2024/04/03 00:28:22;;;;;;;7.37;6.87;;;6.70;99.90;;;;;;5013518;28;20253;-75
2024/04/03 00:30:50;;;;;;;7.93;7.20;;;6.70;99.90;;;;;;5031768;28;20196;-74
2024/04/03 00:33:16;;;;;;;7.90;7.30;;;6.80;99.90;;;;;;5031173;28;20196;-74
2024/04/03 00:35:44;;;;;;;7.73;7.13;;;6.80;99.90;;;;;;5031258;28;20270;-74
2024/04/03 00:38:10;;;;;;;7.97;7.37;;;6.90;99.90;;;;;;5031125;28;20200;-74
2024/04/03 00:40:36;;;;;;;8.00;7.30;;;6.90;99.90;;;;;;5031541;28;20689;-75
2024/04/03 00:43:12;;;;;;;7.07;6.63;;;7.00;99.90;;;;;;5031315;28;20265;-74
2024/04/03 00:45:39;;;;;;;7.43;6.87;;;7.00;99.90;;;;;;5013091;28;20581;-74
2024/04/03 00:48:07;;;;;;;6.83;6.43;;;7.10;99.90;;;;;;5030843;28;20208;-74
2024/04/03 00:50:34;;;;;;;7.17;6.70;;;7.20;99.90;;;;;;5025316;28;20203;-74
2024/04/03 00:53:00;;;;;;;7.43;6.80;;;7.20;99.90;;;;;;5031009;28;20207;-74
2024/04/03 00:55:27;;;;;;;7.30;6.80;;;7.30;99.90;;;;;;5030463;28;20254;-74
2024/04/03 00:57:53;;;;;;;7.20;6.60;;;7.30;99.90;;;;;;5031163;28;20196;-74
2024/04/03 01:00:19;;;;;;;7.30;6.80;;;7.40;99.90;;;;;;5013295;28;20241;-74
2024/04/03 01:02:45;;;;;;;7.73;7.10;;;7.40;99.90;;;;;;5013323;28;20200;-74
2024/04/03 01:05:13;;;;;;;7.80;7.20;;;7.40;99.90;;;;;;5012469;28;20216;-75
2024/04/03 01:07:39;;;;;;;7.33;6.83;;;7.50;99.90;;;;;;5013116;28;20246;-74
2024/04/03 01:10:07;;;;;;;7.47;6.90;;;7.50;99.90;;;;;;5030879;28;20192;-74
2024/04/03 01:12:33;;;;;;;7.93;7.33;;;7.50;99.90;;;;;;5031107;28;20199;-74
2024/04/03 01:15:00;;;;;;;7.30;6.80;;;7.60;99.90;;;;;;5029874;28;20286;-74
2024/04/03 01:17:26;;;;;;;7.00;6.60;;;7.60;99.90;;;;;;5013206;28;20246;-74
2024/04/03 01:19:53;;;;;;;7.63;7.03;;;7.50;99.90;;;;;;5012941;28;20207;-74
2024/04/03 01:22:20;;;;;;;7.10;6.70;;;7.50;99.90;;;;;;5013140;28;20227;-74
2024/04/03 01:24:48;;;;;;;7.23;6.73;;;7.40;99.90;;;;;;5030040;28;20216;-74
2024/04/03 01:27:14;;;;;;;7.30;6.80;;;7.40;99.90;;;;;;5030525;28;20294;-74
2024/04/03 01:29:41;;;;;;;7.53;6.90;;;7.40;99.90;;;;;;5013188;28;20307;-74
2024/04/03 01:32:07;;;;;;;7.67;7.07;;;7.40;99.90;;;;;;5030737;28;20257;-74
2024/04/03 01:34:33;;;;;;;7.10;6.60;;;7.30;99.90;;;;;;5030423;28;20274;-75
2024/04/03 01:36:59;;;;;;;7.13;6.73;;;7.20;99.90;;;;;;5030379;28;20246;-74
2024/04/03 01:39:27;;;;;;;7.17;6.67;;;7.20;99.90;;;;;;5029562;28;20199;-74
2024/04/03 01:41:54;;;;;;;7.53;7.03;;;7.10;99.90;;;;;;5030907;28;20227;-74
2024/04/03 01:44:21;;;;;;;7.60;7.00;;;7.00;99.90;;;;;;5012639;28;20257;-74
2024/04/03 01:46:46;;;;;;;7.97;7.37;;;6.90;99.90;;;;;;5029939;28;20306;-74
2024/04/03 01:49:14;;;;;;;7.90;7.40;;;6.80;99.90;;;;;;5030681;28;20278;-74
2024/04/03 01:51:40;;;;;;;7.80;7.20;;;6.70;99.90;;;;;;5030850;28;20200;-74
2024/04/03 01:54:06;;;;;;;7.63;7.03;;;6.60;99.90;;;;;;5029711;28;20208;-74
2024/04/03 01:56:32;;;;;;;7.50;7.00;;;6.50;99.90;;;;;;5029203;28;20744;-74
2024/04/03 01:59:00;;;;;;;7.50;7.00;;;6.50;99.90;;;;;;5029191;28;20199;-73
2024/04/03 02:01:26;;;;;;;7.67;7.13;;;6.60;99.90;;;;;;5034108;28;20237;-73
2024/04/03 02:03:53;;;;;;;7.70;7.10;;;6.70;99.90;;;;;;5016129;28;20195;-74
2024/04/03 02:06:19;;;;;;;7.67;7.03;;;6.80;99.90;;;;;;5034290;28;20208;-74
2024/04/03 02:08:46;;;;;;;7.70;7.20;;;6.90;99.90;;;;;;5034030;28;20198;-74
2024/04/03 02:11:11;;;;;;;8.53;7.83;;;7.00;99.90;;;;;;5034130;28;20572;-74
2024/04/03 02:13:38;;;;;;;8.10;7.50;;;6.90;99.90;;;;;;5016170;28;20266;-74
2024/04/03 02:16:05;;;;;;;8.23;7.63;;;6.90;99.90;;;;;;5015755;28;20238;-75
2024/04/03 02:18:32;;;;;;;7.93;7.30;;;6.90;99.90;;;;;;5034052;28;20207;-75
2024/04/03 02:20:58;;;;;;;8.43;7.80;;;6.80;99.90;;;;;;5034160;28;20196;-75
2024/04/03 02:23:25;;;;;;;8.40;7.70;;;6.90;99.90;;;;;;5011293;28;20191;-74
2024/04/03 02:25:50;;;;;;;8.03;7.50;;;6.90;99.90;;;;;;5033435;28;20220;-74
2024/04/03 02:28:17;;;;;;;7.90;7.40;;;6.90;99.90;;;;;;5015979;28;20231;-75
2024/04/03 02:30:43;;;;;;;8.07;7.53;;;6.90;99.90;;;;;;5016255;28;20200;-74
2024/04/03 02:33:11;;;;;;;8.40;7.70;;;6.90;99.90;;;;;;5033720;28;20716;-74
2024/04/03 02:35:37;;;;;;;8.53;7.83;;;6.90;99.90;;;;;;5025285;28;20215;-74
2024/04/03 02:38:04;;;;;;;8.53;7.83;;;7.00;99.90;;;;;;5033497;28;20271;-74
2024/04/03 02:40:30;;;;;;;8.20;7.60;;;7.00;99.90;;;;;;5033742;28;20246;-74
2024/04/03 02:42:57;;;;;;;8.47;7.90;;;7.00;99.90;;;;;;5031084;28;20181;-74
2024/04/03 02:45:23;;;;;;;8.33;7.80;;;7.00;99.90;;;;;;5032338;28;20604;-74
2024/04/03 02:47:49;;;;;;;8.10;7.50;;;7.10;99.90;;;;;;5015681;28;20228;-74
2024/04/03 02:50:17;;;;;;;8.20;7.60;;;7.10;99.90;;;;;;5015692;28;20200;-74
2024/04/03 02:52:43;;;;;;;8.20;7.50;;;7.10;99.90;;;;;;5017095;28;20207;-76
2024/04/03 02:55:09;;;;;;;8.00;7.40;;;7.10;99.90;;;;;;5035321;28;20215;-77
2024/04/03 02:57:36;;;;;;;7.93;7.43;;;7.10;99.90;;;;;;5030042;28;20609;-77
2024/04/03 03:00:02;;;;;;;9.80;7.90;;;7.10;99.90;;;;;;5032474;28;20681;-78
2024/04/03 03:02:28;;;;;;;8.50;7.70;;;7.10;99.90;;;;;;5032943;28;20191;-77
2024/04/03 03:04:54;;;;;;;8.37;7.67;;;7.10;99.90;;;;;;5014959;28;20311;-78
2024/04/03 03:07:22;;;;;;;7.97;7.30;;;7.10;99.90;;;;;;5032776;28;20310;-78
2024/04/03 03:09:48;;;;;;;7.90;7.20;;;7.00;99.90;;;;;;5033232;28;20207;-77
2024/04/03 03:12:15;;;;;;;7.60;7.00;;;7.00;99.90;;;;;;5013728;28;20196;-77
2024/04/03 03:14:41;;;;;;;7.80;7.10;;;7.10;99.90;;;;;;5032694;28;20254;-77
2024/04/03 03:17:08;;;;;;;7.80;7.20;;;7.10;99.90;;;;;;5016064;28;20228;-76
2024/04/03 03:19:33;;;;;;;8.37;7.50;;;7.10;99.90;;;;;;5025493;28;20279;-77
2024/04/03 03:22:00;;;;;;;8.83;8.03;;;7.10;99.90;;;;;;5033356;28;20696;-77
2024/04/03 03:24:27;;;;;;;8.30;7.60;;;7.10;99.90;;;;;;5031866;28;20298;-77
2024/04/03 03:26:54;;;;;;;7.97;7.47;;;7.10;99.90;;;;;;5017856;28;20224;-77
2024/04/03 03:29:20;;;;;;;8.30;7.60;;;7.20;99.90;;;;;;5017250;28;20594;-77
2024/04/03 03:31:46;;;;;;;8.20;7.60;;;7.20;99.90;;;;;;5036180;28;20195;-77
2024/04/03 03:34:12;;;;;;;7.53;7.03;;;7.20;99.90;;;;;;5015577;28;20228;-77
2024/04/03 03:36:39;;;;;;;7.50;7.00;;;7.20;99.90;;;;;;5010314;28;20203;-77
2024/04/03 03:39:06;;;;;;;7.60;7.10;;;7.10;99.90;;;;;;5029588;28;20211;-77
2024/04/03 03:41:34;;;;;;;7.57;7.07;;;7.10;99.90;;;;;;5015495;28;20203;-77
2024/04/03 03:44:01;;;;;;;8.33;7.63;;;7.10;99.90;;;;;;5032306;28;20263;-77
2024/04/03 03:46:27;;;;;;;8.30;7.70;;;7.10;99.90;;;;;;5022614;28;20218;-75
2024/04/03 03:54:22;;;;;;;8.30;7.50;;;6.90;99.90;;;;;;5013773;28;20318;-75
2024/04/03 03:56:50;;;;;;;8.10;7.50;;;6.80;99.90;;;;;;5031767;28;20702;-75
2024/04/03 03:59:17;;;;;;;7.70;7.13;;;6.80;99.90;;;;;;5031759;28;20693;-74
2024/04/03 04:01:44;;;;;;;8.50;7.90;;;6.70;99.90;;;;;;5031800;28;20683;-75
2024/04/03 04:04:11;;;;;;;7.90;7.30;;;6.60;99.90;;;;;;5031890;28;20219;-75
2024/04/03 04:06:37;;;;;;;8.40;7.77;;;6.50;99.90;;;;;;5031149;28;20199;-75
2024/04/03 04:09:03;;;;;;;8.73;8.03;;;6.40;99.90;;;;;;5031768;28;20697;-75
2024/04/03 04:11:30;;;;;;;8.80;8.17;;;6.40;99.90;;;;;;5031477;28;20192;-75
2024/04/03 04:17:01;;;;;;;8.63;8.03;;;6.40;99.90;;;;;;4985369;28;20203;-75
2024/04/03 04:19:28;;;;;;;9.10;8.37;;;6.50;99.90;;;;;;4974835;28;20283;-75
2024/04/03 04:21:55;;;;;;;8.77;8.10;;;6.50;99.90;;;;;;4992355;28;20197;-75
2024/04/03 04:24:22;;;;;;;9.13;8.43;;;6.50;99.90;;;;;;4992843;28;20231;-75
2024/04/03 04:26:49;;;;;;;8.47;7.77;;;6.50;99.90;;;;;;5011444;28;20212;-75
2024/04/03 04:29:15;;;;;;;8.63;8.00;;;6.50;99.90;;;;;;4994219;28;20201;-75
2024/04/03 04:31:42;;;;;;;8.63;8.03;;;6.50;99.90;;;;;;4994208;28;20207;-75
2024/04/03 04:34:09;;;;;;;9.07;8.17;;;6.50;99.90;;;;;;5010360;28;20267;-75
2024/04/03 04:36:36;;;;;;;9.20;8.33;;;6.50;99.90;;;;;;5010109;28;20236;-75
2024/04/03 04:39:03;;;;;;;8.77;7.97;;;6.50;99.90;;;;;;5011644;28;20197;-75
2024/04/03 04:41:30;;;;;;;9.00;8.30;;;6.50;99.90;;;;;;5011184;28;20747;-75
2024/04/03 04:43:56;;;;;;;7.87;7.37;;;6.50;99.90;;;;;;4993905;28;20573;-75
2024/04/03 04:46:22;;;;;;;9.33;8.63;;;6.60;99.90;;;;;;4993435;28;20220;-75
2024/04/03 04:48:48;;;;;;;8.60;8.00;;;6.60;99.90;;;;;;5011302;28;20216;-75
2024/04/03 04:51:19;;;;;;;8.97;8.37;;;6.60;99.90;;;;;;5011188;28;20215;-75
2024/04/03 04:53:45;;;;;;;8.37;7.77;;;6.60;99.90;;;;;;4994684;28;20201;-75
2024/04/03 04:56:12;;;;;;;8.73;8.10;;;6.60;99.90;;;;;;5011196;28;20216;-75
2024/04/03 04:58:37;;;;;;;8.40;7.70;;;6.60;99.90;;;;;;5010903;28;20247;-75
2024/04/03 05:01:06;;;;;;;8.60;8.00;;;6.70;99.90;;;;;;5011423;28;20259;-75
2024/04/03 05:03:32;;;;;;;8.97;8.27;;;6.70;99.90;;;;;;4992621;28;20259;-75
2024/04/03 05:06:00;;;;;;;8.40;7.80;;;6.70;99.90;;;;;;5005819;28;20698;-76
2024/04/03 05:08:27;;;;;;;8.43;7.83;;;6.70;99.90;;;;;;5001125;28;20625;-76
2024/04/03 05:10:56;;;;;;;8.57;7.97;;;6.80;99.90;;;;;;4993951;28;20204;-75
2024/04/03 05:13:23;;;;;;;8.87;8.17;;;6.80;99.90;;;;;;5010343;28;20220;-75
2024/04/03 05:15:51;;;;;;;8.27;7.57;;;6.80;99.90;;;;;;5011366;28;20224;-75
2024/04/03 05:18:17;;;;;;;8.47;7.87;;;6.90;99.90;;;;;;5011334;28;20195;-75
2024/04/03 05:20:44;;;;;;;8.63;7.93;;;6.90;99.90;;;;;;5007552;28;20433;-76
2024/04/03 05:23:09;;;;;;;9.07;8.23;;;6.90;99.90;;;;;;5006322;28;20207;-76
2024/04/03 05:25:38;;;;;;;8.70;8.10;;;6.90;99.90;;;;;;5011058;28;20224;-75
2024/04/03 05:28:04;;;;;;;8.60;7.80;;;6.90;99.90;;;;;;5010011;28;20756;-75
2024/04/03 05:30:34;;;;;;;8.80;8.20;;;7.00;99.90;;;;;;5009505;28;20203;-75
2024/04/03 05:33:00;;;;;;;9.07;8.43;;;6.90;99.90;;;;;;4988356;28;20200;-75
2024/04/03 05:35:27;;;;;;;8.50;7.90;;;7.00;99.90;;;;;;5010706;28;20216;-75
2024/04/03 05:37:52;;;;;;;8.50;7.90;;;7.00;99.90;;;;;;5014919;28;20224;-75
2024/04/03 05:40:19;;;;;;;8.90;8.20;;;7.00;99.90;;;;;;5015100;28;20227;-75
2024/04/03 05:42:46;;;;;;;8.17;7.63;;;7.00;99.90;;;;;;5015137;28;20259;-75
2024/04/03 05:45:13;;;;;;;8.57;7.90;;;7.10;99.90;;;;;;5014466;28;20240;-75
2024/04/03 05:47:39;;;;;;;8.57;7.97;;;7.00;99.90;;;;;;4993961;28;20248;-75
2024/04/03 05:50:06;;;;;;;8.37;7.77;;;7.10;99.90;;;;;;5009060;28;20224;-75
2024/04/03 05:52:33;;;;;;;8.73;8.10;;;7.10;99.90;;;;;;5005251;28;20209;-75
2024/04/03 05:55:00;;;;;;;9.10;8.30;;;7.10;99.90;;;;;;4994745;28;20220;-75
2024/04/03 05:57:25;;;;;;;8.70;8.00;;;7.10;99.90;;;;;;5013453;28;20616;-75
2024/04/03 05:59:54;;;;;;;9.23;8.53;;;7.20;99.90;;;;;;5014433;28;20288;-75
2024/04/03 06:02:20;;;;;;;8.37;7.50;;;7.20;99.90;;;;;;5013548;28;20204;-74
2024/04/03 06:04:46;;;;;;;8.60;7.90;;;7.20;99.90;;;;;;5013978;28;20216;-74
2024/04/03 06:07:12;;;;;;;8.17;7.47;;;7.20;99.90;;;;;;5014497;28;20213;-76
2024/04/03 06:09:41;;;;;;;7.80;7.30;;;7.30;99.90;;;;;;5002388;28;20199;-75
2024/04/03 06:12:07;;;;;;;8.17;7.50;;;7.40;99.90;;;;;;4996678;28;20205;-76
2024/04/03 06:14:34;;;;;;;7.93;7.33;;;7.40;99.90;;;;;;5014100;28;20243;-76
2024/04/03 06:17:03;;;;;;;8.00;7.47;;;7.50;99.90;;;;;;4992302;28;20197;-77
2024/04/03 06:19:29;;;;;;;8.20;7.60;;;7.60;99.90;;;;;;4992008;28;20208;-77
2024/04/03 06:21:55;;;;;;;7.90;7.23;;;7.60;99.90;;;;;;5015117;28;20671;-76
2024/04/03 06:24:22;;;;;;;8.27;7.67;;;7.70;99.90;;;;;;4996979;28;20216;-75
2024/04/03 06:26:48;;;;;;;8.00;7.40;;;7.80;99.90;;;;;;5012683;28;20356;-74
2024/04/03 06:29:18;;;;;;;8.10;7.40;;;7.80;99.90;;;;;;5013993;28;20660;-74
2024/04/03 06:31:47;;;;;;;7.70;7.10;;;7.90;99.90;;;;;;5011514;28;20667;-75
2024/04/03 06:34:14;;;;;;;7.90;7.30;;;8.00;99.90;;;;;;5008695;28;20220;-75
2024/04/03 06:36:41;;;;;;;8.73;8.13;;;8.10;99.90;;;;;;5013836;28;20196;-74
2024/04/03 06:39:07;;;;;;;7.93;7.40;;;8.20;99.90;;;;;;4996480;28;20192;-75
2024/04/03 06:41:34;;;;;;;7.60;7.00;;;8.30;99.90;;;;;;5013774;28;20272;-74
2024/04/03 06:44:00;;;;;;;8.30;7.63;;;8.50;99.90;;;;;;5013580;28;20258;-75
2024/04/03 06:46:27;;;;;;;7.80;7.30;;;8.50;99.90;;;;;;5013336;28;20212;-75
2024/04/03 06:48:53;;;;;;;7.93;7.23;;;8.60;99.90;;;;;;5004573;28;20303;-74
2024/04/03 06:51:21;;;;;;;7.77;7.20;;;8.60;99.90;;;;;;5005502;28;20189;-74
2024/04/03 06:53:49;;;;;;;7.70;7.20;;;8.60;99.90;;;;;;5013678;28;20280;-75
2024/04/03 06:56:16;;;;;;;7.60;7.10;;;8.60;99.90;;;;;;5013170;28;20219;-75
2024/04/03 06:58:42;;;;;;;8.00;7.40;;;8.60;99.90;;;;;;5011766;28;20647;-75
2024/04/03 07:01:11;;;;;;;7.63;7.00;;;8.50;99.90;;;;;;5008356;28;20196;-75
2024/04/03 07:03:37;;;;;;;7.60;7.10;;;8.50;99.90;;;;;;5013067;28;20200;-75
2024/04/03 07:06:05;;;;;;;7.83;7.33;;;8.50;99.90;;;;;;5013508;28;20662;-75
2024/04/03 07:08:33;;;;;;;7.93;7.43;;;8.50;99.90;;;;;;5012656;28;20722;-74
2024/04/03 07:11:00;;;;;;;7.73;7.23;;;8.50;99.90;;;;;;5006181;28;20196;-75
2024/04/03 07:13:27;;;;;;;7.70;7.20;;;8.50;99.90;;;;;;5003772;28;20260;-74
2024/04/03 07:15:54;;;;;;;7.83;7.33;;;8.50;99.90;;;;;;5009333;28;20225;-75
2024/04/03 07:18:20;;;;;;;7.63;7.10;;;8.50;99.90;;;;;;5009201;28;20242;-75
2024/04/03 07:20:54;;;;;;;8.07;7.37;;;8.50;99.90;;;;;;5010644;28;20523;-75
2024/04/03 07:23:25;;;;;;;7.77;7.17;;;8.50;99.90;;;;;;4994680;28;20621;-76
2024/04/03 07:25:54;;;;;;;7.40;6.90;;;8.60;99.90;;;;;;5012584;28;20220;-76
2024/04/03 07:28:19;;;;;;;7.17;6.43;;;8.70;99.90;;;;;;5011056;28;20208;-76
2024/04/03 07:30:46;;;;;;;6.87;6.40;;;8.70;99.90;;;;;;5013387;28;20215;-76
2024/04/03 07:33:12;;;;;;;7.40;6.80;;;8.90;99.90;;;;;;5013136;28;20243;-76
2024/04/03 07:35:40;;;;;;;7.17;6.53;;;8.90;99.90;;;;;;4995540;28;20220;-76
2024/04/03 07:38:06;;;;;;;6.60;6.20;;;9.00;99.90;;;;;;5009866;28;20197;-76
2024/04/03 07:40:33;;;;;;;7.13;6.57;;;9.10;99.90;;;;;;5013562;28;20197;-76
2024/04/03 07:43:02;;;;;;;7.73;7.13;;;9.10;99.90;;;;;;4995664;28;21703;-75
2024/04/03 07:45:27;;;;;;;8.10;7.27;;;9.20;99.90;;;;;;5008775;28;20236;-75
2024/04/03 07:47:54;;;;;;;7.43;6.83;;;9.40;99.90;;;;;;4995163;28;20727;-75
2024/04/03 07:50:20;;;;;;;7.90;7.30;;;9.50;99.90;;;;;;5011151;28;20229;-75
2024/04/03 07:52:47;;;;;;;7.77;7.07;;;9.60;99.90;;;;;;4995155;28;20205;-75
2024/04/03 07:55:14;;;;;;;8.63;7.77;;;9.80;99.90;;;;;;5011327;28;20254;-75
2024/04/03 07:57:41;;;;;;;8.80;7.90;;;9.90;99.90;;;;;;4994614;28;20202;-75
2024/04/03 08:00:09;;;;;;;8.10;7.50;;;10.00;99.90;;;;;;5009224;28;20226;-76
2024/04/03 08:02:41;;;;;;;8.80;8.00;;;10.00;99.90;;;;;;4986479;28;20210;-75
2024/04/03 08:05:08;;;;;;;8.77;7.93;;;10.10;99.90;;;;;;5004268;28;20223;-75
2024/04/03 08:07:35;;;;;;;7.83;7.23;;;10.30;99.90;;;;;;5012688;28;20273;-75
2024/04/03 08:10:02;;;;;;;8.30;7.70;;;10.50;99.90;;;;;;5005085;28;20242;-76
2024/04/03 08:12:28;;;;;;;7.50;7.00;;;10.70;99.90;;;;;;4999468;28;20203;-75
2024/04/03 08:14:56;;;;;;;7.97;7.40;;;11.00;99.90;;;;;;5010540;28;20245;-75
2024/04/03 08:17:24;;;;;;;8.17;7.50;;;11.40;99.90;;;;;;5012387;28;20295;-75
2024/04/03 08:19:51;;;;;;;5.03;4.27;;;11.70;99.90;;;;;;5008695;28;20200;-76
2024/04/03 08:22:18;;;;;;;6.87;6.47;;;12.10;99.90;;;;;;5005563;28;20276;-76
2024/04/03 08:24:43;;;;;;;8.07;7.37;;;12.40;99.90;;;;;;4997937;28;20247;-76
2024/04/03 08:27:11;;;;;;;4.60;3.90;;;12.80;99.90;;;;;;5011112;28;20618;-77
2024/04/03 08:29:39;;;;;;;5.20;4.63;;;13.00;99.90;;;;;;5011718;28;20217;-76
2024/04/03 08:32:06;;;;;;;6.85;6.38;;;13.30;99.90;;;;;;5004681;28;21004;-77
2024/04/03 08:34:34;;;;;;;6.90;6.30;;;13.50;99.90;;;;;;5012862;28;20439;-77
2024/04/03 08:37:04;;;;;;;7.30;6.70;;;13.70;99.90;;;;;;5014133;28;20278;-79
2024/04/03 08:39:30;;;;;;;6.70;6.20;;;14.00;99.90;;;;;;5014901;28;20216;-78
2024/04/03 08:42:00;;;;;;;6.70;6.20;;;14.10;99.90;;;;;;4983557;28;20607;-80
2024/04/03 08:44:28;;;;;;;7.17;6.57;;;14.20;99.90;;;;;;5002236;28;20283;-79
2024/04/03 08:46:55;;;;;;;6.20;5.80;;;14.40;99.90;;;;;;5013912;28;20199;-79
2024/04/03 08:49:22;;;;;;;5.50;5.20;;;14.50;99.90;;;;;;4994833;28;20255;-76
2024/04/03 08:51:57;;;;;;;5.50;5.10;;;14.60;99.90;;;;;;4991896;28;20291;-77
2024/04/03 08:54:26;;;;;;;3.90;3.60;;;14.70;99.90;;;;;;5012103;28;20266;-77
2024/04/03 08:56:53;;;;;;;4.50;4.10;;;14.70;99.90;;;;;;4989634;28;20200;-77
2024/04/03 08:59:20;;;;;;;5.10;4.70;;;14.90;99.90;;;;;;5013364;28;20223;-77
2024/04/03 09:01:48;;;;;;;4.20;3.90;;;15.00;99.90;;;;;;5018207;28;20197;-77
2024/04/03 09:04:16;;;;;;;6.40;3.90;;;15.10;99.90;;;;;;5006111;28;20272;-77
2024/04/03 09:06:43;;;;;;;4.83;4.53;;;15.10;99.90;;;;;;4994981;28;20223;-76
2024/04/03 09:09:17;;;;;;;5.77;5.33;;;15.20;99.90;;;;;;5013233;28;20219;-77
2024/04/03 09:11:45;;;;;;;5.30;5.00;;;15.30;99.90;;;;;;5013166;28;20196;-77
2024/04/03 09:14:21;;;;;;;5.67;5.20;;;15.50;99.90;;;;;;5012327;28;20566;-74
2024/04/03 09:16:49;;;;;;;6.40;5.80;;;15.90;99.90;;;;;;5010706;28;20574;-75
2024/04/03 09:19:15;;;;;;;6.43;5.93;;;16.30;99.90;;;;;;5011200;28;20587;-76
2024/04/03 09:21:43;;;;;;;7.13;6.63;;;17.00;99.90;;;;;;5011547;28;20705;-75
2024/04/03 09:24:09;;;;;;;7.00;6.60;;;17.20;99.90;;;;;;4999090;28;20278;-75
2024/04/03 09:26:44;;;;;;;7.10;6.70;;;17.70;99.90;;;;;;4992622;28;20642;-76
2024/04/03 09:29:11;;;;;;;4.77;4.47;;;18.20;99.90;;;;;;5009255;28;20272;-76
2024/04/03 09:31:38;;;;;;;8.17;7.43;;;18.50;99.90;;;;;;5005429;28;20221;-76
2024/04/03 09:34:04;;;;;;;6.53;6.13;;;18.80;99.90;;;;;;5011288;28;20207;-76
2024/04/03 09:36:31;;;;;;;9.57;8.97;;;18.90;99.90;;;;;;5011037;28;20215;-76
2024/04/03 09:38:57;;;;;;;2.17;1.97;;;19.20;99.90;;;;;;5001827;28;20204;-76
2024/04/03 09:41:30;;;;;;;5.37;4.87;;;19.50;99.90;;;;;;5011660;28;20231;-76
2024/04/03 09:44:00;;;;;;;2.30;2.10;;;19.70;99.90;;;;;;5004703;28;20243;-76
2024/04/03 09:46:33;;;;;;;2.43;2.23;;;19.80;99.90;;;;;;5009284;28;20635;-76
2024/04/03 09:49:01;;;;;;;7.13;6.73;;;19.50;99.90;;;;;;5011370;28;20216;-76
2024/04/03 09:51:28;;;;;;;7.63;7.13;;;18.70;99.90;;;;;;5003065;28;20290;-76
2024/04/03 09:53:53;;;;;;;6.07;5.67;;;18.90;99.90;;;;;;5011265;28;20201;-75
2024/04/03 09:56:20;;;;;;;6.43;6.03;;;19.20;99.90;;;;;;5010774;28;20725;-76
2024/04/03 09:58:50;;;;;;;6.50;6.10;;;19.20;99.90;;;;;;5011186;28;20716;-76
2024/04/03 10:01:18;;;;;;;6.60;6.20;;;19.00;99.90;;;;;;4997365;28;20200;-76
2024/04/03 10:03:44;;;;;;;6.60;6.20;;;18.70;99.90;;;;;;5006012;28;20672;-76
2024/04/03 10:06:13;;;;;;;6.40;6.07;;;18.40;99.90;;;;;;5002607;28;20219;-76
2024/04/03 10:08:40;;;;;;;6.93;6.43;;;18.10;99.90;;;;;;5013852;28;20699;-78
2024/04/03 10:11:08;;;;;;;6.20;5.80;;;17.90;99.90;;;;;;4994943;28;20251;-77
2024/04/03 10:13:36;;;;;;;7.07;6.67;;;17.60;99.90;;;;;;4990911;28;20223;-78
2024/04/03 10:16:04;;;;;;;6.73;6.33;;;17.50;99.90;;;;;;4993895;28;20236;-78
2024/04/03 10:18:36;;;;;;;6.80;6.40;;;17.30;99.90;;;;;;4993374;28;20671;-77
2024/04/03 10:21:04;;;;;;;6.33;6.03;;;17.10;99.90;;;;;;4995704;28;20750;-79
2024/04/03 10:23:39;;;;;;;6.30;5.80;;;16.90;99.90;;;;;;5014429;28;20230;-78
2024/04/03 10:26:07;;;;;;;6.67;5.80;;;16.70;99.90;;;;;;5012901;28;20611;-79
2024/04/03 10:28:32;;;;;;;6.37;5.90;;;16.70;99.90;;;;;;5009253;28;20231;-79
2024/04/03 10:30:59;;;;;;;6.40;6.00;;;16.60;99.90;;;;;;5000056;28;20203;-78
2024/04/03 10:33:27;;;;;;;6.40;5.97;;;16.60;99.90;;;;;;5014102;28;20206;-78
2024/04/03 10:35:55;;;;;;;6.40;6.00;;;16.40;99.90;;;;;;5006257;28;20219;-79
2024/04/03 10:38:22;;;;;;;6.43;6.03;;;16.20;99.90;;;;;;5014534;28;20200;-78
2024/04/03 10:40:48;;;;;;;6.20;5.87;;;16.10;99.90;;;;;;4997336;28;20198;-79
2024/04/03 10:43:14;;;;;;;6.30;6.00;;;15.90;99.90;;;;;;5013553;28;20203;-78
2024/04/03 10:45:41;;;;;;;2.77;2.60;;;15.80;99.90;;;;;;4996494;28;20254;-79
2024/04/03 10:48:09;;;;;;;5.43;5.03;;;15.80;99.90;;;;;;4989189;28;20309;-79
2024/04/03 10:50:37;;;;;;;7.20;6.80;;;15.80;99.90;;;;;;5008261;28;20267;-79
2024/04/03 10:53:05;;;;;;;7.53;7.03;;;15.80;99.90;;;;;;5002382;28;20256;-78
2024/04/03 10:55:33;;;;;;;2.87;2.77;;;15.60;99.90;;;;;;4992039;28;20233;-77
2024/04/03 10:58:00;;;;;;;2.20;2.00;;;15.60;99.90;;;;;;5010648;28;20200;-76
2024/04/03 11:00:33;;;;;;;5.97;5.57;;;15.50;99.90;;;;;;4994797;28;20717;-76
2024/04/03 11:03:01;;;;;;;5.33;4.97;;;15.50;99.90;;;;;;5013027;28;20205;-75
2024/04/03 11:05:28;;;;;;;1.77;1.70;;;15.30;99.90;;;;;;4996076;28;20259;-76
2024/04/03 11:07:54;;;;;;;1.90;1.70;;;15.30;99.90;;;;;;5014126;28;20258;-77
2024/04/03 11:10:22;;;;;;;1.90;1.87;;;15.40;99.90;;;;;;4991987;28;20205;-77
2024/04/03 11:12:48;;;;;;;4.17;3.97;;;15.30;99.90;;;;;;5014553;28;20283;-77
2024/04/03 11:15:22;;;;;;;2.00;1.90;;;15.40;99.90;;;;;;5009955;28;20274;-77
2024/04/03 11:17:48;;;;;;;3.23;3.03;;;15.50;99.90;;;;;;5020357;28;20208;-77
2024/04/03 11:20:15;;;;;;;1.83;1.73;;;15.70;99.90;;;;;;5012805;28;20194;-77
2024/04/03 11:22:41;;;;;;;5.60;5.20;;;15.90;99.90;;;;;;5013325;28;20208;-77
2024/04/03 11:25:12;;;;;;;1.50;1.40;;;16.10;99.90;;;;;;5013560;28;20210;-77
2024/04/03 11:27:41;;;;;;;6.57;6.17;;;16.30;99.90;;;;;;5003234;28;20210;-77
2024/04/03 11:30:10;;;;;;;1.83;1.73;;;16.40;99.90;;;;;;5012984;28;20575;-77
2024/04/03 11:32:36;;;;;;;5.50;5.20;;;16.40;99.90;;;;;;5012833;28;20212;-77
2024/04/03 11:35:03;;;;;;;5.83;5.53;;;16.20;99.90;;;;;;4995590;28;20637;-77
2024/04/03 11:37:30;;;;;;;5.50;5.30;;;15.90;99.90;;;;;;5013241;28;20205;-77
2024/04/03 11:39:57;;;;;;;5.63;5.33;;;15.90;99.90;;;;;;5013025;28;20236;-76
2024/04/03 11:42:23;;;;;;;2.20;2.10;;;16.10;99.90;;;;;;5013384;28;20549;-77
2024/04/03 11:44:51;;;;;;;2.20;2.00;;;16.20;99.90;;;;;;5011774;28;20303;-77
2024/04/03 11:47:16;;;;;;;2.07;1.97;;;16.20;99.90;;;;;;5012957;28;20197;-77
2024/04/03 11:49:44;;;;;;;4.90;4.67;;;16.20;99.90;;;;;;5013191;28;20755;-77
2024/04/03 11:52:09;;;;;;;4.93;4.73;;;16.10;99.90;;;;;;4995797;28;20259;-77
2024/04/03 11:54:36;;;;;;;6.10;5.70;;;16.00;99.90;;;;;;5012827;28;20220;-77
2024/04/03 11:57:02;;;;;;;5.50;5.20;;;15.80;99.90;;;;;;5010681;28;20219;-77
2024/04/03 11:59:29;;;;;;;5.77;5.47;;;15.80;99.90;;;;;;5008806;28;20276;-77
2024/04/03 12:01:56;;;;;;;5.67;5.37;;;15.80;99.90;;;;;;5011132;28;20610;-77
2024/04/03 12:04:24;;;;;;;6.00;5.70;;;15.70;99.90;;;;;;5011994;28;20222;-77
2024/04/03 12:06:50;;;;;;;5.57;5.27;;;15.80;99.90;;;;;;4994799;28;20730;-77
2024/04/03 12:09:16;;;;;;;5.67;5.37;;;15.70;99.90;;;;;;4995167;28;20220;-77
2024/04/03 12:11:42;;;;;;;5.03;4.70;;;15.60;99.90;;;;;;4995256;28;20737;-77
2024/04/03 12:14:09;;;;;;;5.93;5.63;;;15.50;99.90;;;;;;5012276;28;20204;-77
2024/04/03 12:16:35;;;;;;;6.67;6.17;;;15.40;99.90;;;;;;5012200;28;20571;-77
2024/04/03 12:19:13;;;;;;;6.70;6.40;;;15.40;99.90;;;;;;5012255;28;20255;-77
2024/04/03 12:21:40;;;;;;;6.47;6.17;;;15.30;99.90;;;;;;5012001;28;20579;-77
2024/04/03 12:24:07;;;;;;;6.50;6.10;;;15.30;99.90;;;;;;4999120;28;20256;-77
2024/04/03 12:26:33;;;;;;;6.73;6.43;;;15.30;99.90;;;;;;4993724;28;20258;-77
2024/04/03 12:29:00;;;;;;;5.80;5.50;;;15.40;99.90;;;;;;5010774;28;20213;-77
2024/04/03 12:31:27;;;;;;;5.60;5.30;;;15.60;99.90;;;;;;5002735;28;20212;-76
2024/04/03 12:33:54;;;;;;;5.37;5.07;;;15.80;99.90;;;;;;5012596;28;20196;-76
2024/04/03 12:36:23;;;;;;;6.00;5.60;;;16.00;99.90;;;;;;5007019;28;20229;-76
2024/04/03 12:38:50;;;;;;;3.53;2.23;;;16.10;99.90;;;;;;5010776;28;20205;-76
2024/04/03 12:41:16;;;;;;;1.80;1.70;;;16.20;99.90;;;;;;5011012;28;20245;-76
2024/04/03 12:43:44;;;;;;;6.30;5.90;;;16.20;99.90;;;;;;4994251;28;20196;-76
2024/04/03 12:46:13;;;;;;;1.80;1.70;;;16.30;99.90;;;;;;5010204;28;20221;-76
2024/04/03 12:48:39;;;;;;;1.90;1.80;;;16.20;99.90;;;;;;4991888;28;20222;-76
2024/04/03 12:51:05;;;;;;;1.60;1.60;;;16.20;99.90;;;;;;5012171;28;20224;-76
2024/04/03 12:53:33;;;;;;;5.53;5.23;;;16.00;99.90;;;;;;5010777;28;20631;-76
2024/04/03 12:56:01;;;;;;;6.20;5.90;;;16.00;99.90;;;;;;5012645;28;20296;-75
2024/04/03 12:58:28;;;;;;;6.60;6.20;;;15.80;99.90;;;;;;5004758;28;20189;-75
2024/04/03 13:00:54;;;;;;;2.83;2.73;;;15.80;99.90;;;;;;4996806;28;20201;-75